createdAt,value
2018-05-10T00:01:34.561Z,23.90
2018-05-10T00:04:02.088Z,25.73
2018-05-10T00:06:29.630Z,30.60
2018-05-10T00:08:57.458Z,20.33
2018-05-10T00:11:25.771Z,19.27
2018-05-10T00:13:53.287Z,29.37
2018-05-10T00:16:20.810Z,24.83
2018-05-10T00:18:49.126Z,24.63
2018-05-10T00:21:16.666Z,27.27
2018-05-10T00:23:45.144Z,25.23
2018-05-10T00:26:12.673Z,23.13
2018-05-10T00:28:40.357Z,21.70
2018-05-10T00:31:07.888Z,24.30
2018-05-10T00:33:35.495Z,30.30
2018-05-10T00:36:03.011Z,18.70
2018-05-10T00:38:31.331Z,25.77
2018-05-10T00:40:58.849Z,19.03
2018-05-10T00:43:26.513Z,21.67
2018-05-10T00:45:54.070Z,28.90
2018-05-10T00:48:21.646Z,22.67
2018-05-10T00:50:49.931Z,16.57
2018-05-10T00:53:18.293Z,20.63
2018-05-10T00:55:45.880Z,19.27
2018-05-10T00:58:13.431Z,21.37
2018-05-10T01:00:41.094Z,24.90
2018-05-10T01:03:10.202Z,22.50
2018-05-10T01:05:37.730Z,17.13
2018-05-10T01:08:06.191Z,18.47
2018-05-10T01:10:33.720Z,22.90
2018-05-10T01:13:01.258Z,24.77
2018-05-10T01:15:29.546Z,20.08
2018-05-10T01:17:57.853Z,21.97
2018-05-10T01:20:25.420Z,26.50
2018-05-10T01:22:52.971Z,20.80
2018-05-10T01:25:20.499Z,22.03
2018-05-10T01:27:48.044Z,19.70
2018-05-10T01:30:15.581Z,26.73
2018-05-10T01:32:43.127Z,21.37
2018-05-10T01:35:23.639Z,17.80
2018-05-10T01:37:51.190Z,19.80
2018-05-10T01:40:18.818Z,28.87
2018-05-10T01:42:46.408Z,27.90
2018-05-10T01:45:14.865Z,27.43
2018-05-10T01:47:42.424Z,38.03
2018-05-10T01:50:11.606Z,19.73
2018-05-10T01:52:39.253Z,18.90
2018-05-10T01:55:07.383Z,28.57
2018-05-10T01:57:35.247Z,27.20
2018-05-10T02:00:02.907Z,23.30
2018-05-10T02:02:30.450Z,20.37
2018-05-10T02:04:58.125Z,30.33
2018-05-10T02:07:25.744Z,27.40
2018-05-10T02:09:53.298Z,21.40
2018-05-10T02:12:20.818Z,23.03
2018-05-10T02:14:48.454Z,25.83
2018-05-10T02:17:15.911Z,28.70
2018-05-10T02:19:43.463Z,23.57
2018-05-10T02:22:10.992Z,21.05
2018-05-10T02:24:38.529Z,16.77
2018-05-10T02:27:06.062Z,24.93
2018-05-10T02:29:33.618Z,17.53
2018-05-10T02:32:01.138Z,21.23
2018-05-10T02:34:29.452Z,17.03
2018-05-10T02:36:56.975Z,18.30
2018-05-10T02:39:24.536Z,20.03
2018-05-10T02:41:52.054Z,31.57
2018-05-10T02:44:19.628Z,27.20
2018-05-10T02:46:47.150Z,21.00
2018-05-10T02:49:14.696Z,21.17
2018-05-10T02:51:42.257Z,18.80
2018-05-10T02:54:10.583Z,23.00
2018-05-10T02:56:38.103Z,17.53
2018-05-10T02:59:05.646Z,17.03
2018-05-10T03:01:33.171Z,17.30
2018-05-10T03:04:00.802Z,24.67
2018-05-10T03:06:28.352Z,23.63
2018-05-10T03:08:55.875Z,19.60
2018-05-10T03:11:24.352Z,21.33
2018-05-10T03:13:51.881Z,22.40
2018-05-10T03:16:19.432Z,27.50
2018-05-10T03:18:47.027Z,23.90
2018-05-10T03:21:14.571Z,22.87
2018-05-10T03:23:42.846Z,21.00
2018-05-10T03:26:11.167Z,15.90
2018-05-10T03:28:38.683Z,17.73
2018-05-10T03:31:06.248Z,21.43
2018-05-10T03:33:33.794Z,20.00
2018-05-10T03:36:01.348Z,21.00
2018-05-10T03:38:28.951Z,16.67
2018-05-10T03:40:56.514Z,20.87
2018-05-10T03:43:24.071Z,21.20
2018-05-10T03:45:51.659Z,20.03
2018-05-10T03:48:20.078Z,24.20
2018-05-10T03:50:47.628Z,17.33
2018-05-10T03:53:15.142Z,28.37
2018-05-10T03:55:42.702Z,16.12
2018-05-10T03:58:10.317Z,24.53
2018-05-10T04:00:38.657Z,22.37
2018-05-10T04:06:25.766Z,20.27
2018-05-10T04:09:05.188Z,20.20
2018-05-10T04:11:32.844Z,19.80
2018-05-10T04:14:01.198Z,19.13
2018-05-10T04:16:29.522Z,18.97
2018-05-10T04:18:57.038Z,22.13
2018-05-10T04:21:24.647Z,29.27
2018-05-10T04:23:52.234Z,21.10
2018-05-10T04:26:19.792Z,19.43
2018-05-10T04:28:47.327Z,20.65
2018-05-10T04:31:14.875Z,24.77
2018-05-10T04:33:42.430Z,25.33
2018-05-10T04:36:09.979Z,18.57
2018-05-10T04:38:37.494Z,21.60
2018-05-10T04:41:05.049Z,16.40
2018-05-10T04:43:32.575Z,20.80
2018-05-10T04:46:01.308Z,17.83
2018-05-10T04:48:28.929Z,17.17
2018-05-10T04:50:56.476Z,24.27
2018-05-10T04:53:24.022Z,23.77
2018-05-10T04:55:51.603Z,19.80
2018-05-10T04:58:20.026Z,17.30
2018-05-10T05:00:47.546Z,15.03
2018-05-10T05:03:15.092Z,26.20
2018-05-10T05:05:42.659Z,23.93
2018-05-10T05:08:11.270Z,21.77
2018-05-10T05:10:38.927Z,16.47
2018-05-10T05:13:06.539Z,20.53
2018-05-10T05:15:34.451Z,22.10
2018-05-10T05:18:01.994Z,23.87
2018-05-10T05:20:29.509Z,16.50
2018-05-10T05:22:57.840Z,22.90
2018-05-10T05:25:25.368Z,23.40
2018-05-10T05:27:52.923Z,22.90
2018-05-10T05:30:20.457Z,19.20
2018-05-10T05:32:48.035Z,19.00
2018-05-10T05:35:15.755Z,23.73
2018-05-10T05:37:43.395Z,24.23
2018-05-10T05:40:10.939Z,24.30
2018-05-10T05:42:38.490Z,18.40
2018-05-10T05:45:06.094Z,29.27
2018-05-10T05:47:34.478Z,18.27
2018-05-10T05:50:02.008Z,24.17
2018-05-10T05:52:29.554Z,18.40
2018-05-10T05:54:57.174Z,21.53
2018-05-10T05:57:24.687Z,28.07
2018-05-10T05:59:52.206Z,19.13
2018-05-10T06:02:19.815Z,26.10
2018-05-10T06:04:48.107Z,23.47
2018-05-10T06:07:16.776Z,20.30
2018-05-10T06:09:44.298Z,17.42
2018-05-10T06:12:12.612Z,21.00
2018-05-10T06:14:40.131Z,18.20
2018-05-10T06:17:08.205Z,24.03
2018-05-10T06:19:35.742Z,19.30
2018-05-10T06:22:03.288Z,16.70
2018-05-10T06:24:30.824Z,20.67
2018-05-10T06:26:58.448Z,20.80
2018-05-10T06:29:26.032Z,19.87
2018-05-10T06:31:53.559Z,21.00
2018-05-10T06:34:21.113Z,20.90
2018-05-10T06:36:48.708Z,22.23
2018-05-10T06:39:17.031Z,25.00
2018-05-10T06:41:45.380Z,25.90
2018-05-10T06:44:13.003Z,20.93
2018-05-10T06:46:40.703Z,16.30
2018-05-10T06:49:08.290Z,28.30
2018-05-10T06:51:35.814Z,16.97
2018-05-10T06:54:04.310Z,19.20
2018-05-10T06:56:31.844Z,16.53
2018-05-10T06:58:59.419Z,17.90
2018-05-10T07:01:27.022Z,18.53
2018-05-10T07:03:55.441Z,22.10
2018-05-10T07:06:22.983Z,24.23
2018-05-10T07:08:50.523Z,25.60
2018-05-10T07:11:18.042Z,18.77
2018-05-10T07:13:45.590Z,15.80
2018-05-10T07:16:13.112Z,21.27
2018-05-10T07:18:40.730Z,25.70
2018-05-10T07:21:08.258Z,22.30
2018-05-10T07:23:35.851Z,17.50
2018-05-10T07:26:04.254Z,20.30
2018-05-10T07:28:31.794Z,16.90
2018-05-10T07:31:00.798Z,22.03
2018-05-10T07:33:28.361Z,14.97
2018-05-10T07:35:55.886Z,26.50
2018-05-10T07:38:23.436Z,20.13
2018-05-10T07:40:50.955Z,22.17
2018-05-10T07:43:18.526Z,16.30
2018-05-10T07:45:46.100Z,20.93
2018-05-10T07:48:13.722Z,20.23
2018-05-10T07:50:41.343Z,20.37
2018-05-10T07:53:08.894Z,26.70
2018-05-10T07:55:36.420Z,18.73
2018-05-10T07:58:04.039Z,16.57
2018-05-10T08:00:32.507Z,34.43
2018-05-10T08:03:00.039Z,16.83
2018-05-10T08:05:28.343Z,20.93
2018-05-10T08:07:55.867Z,21.97
2018-05-10T08:10:23.424Z,20.97
2018-05-10T08:12:50.940Z,24.03
2018-05-10T08:15:18.483Z,17.83
2018-05-10T08:17:46.767Z,16.40
2018-05-10T08:20:14.314Z,17.40
2018-05-10T08:22:41.831Z,18.07
2018-05-10T08:25:10.886Z,24.60
2018-05-10T08:27:46.212Z,30.93
2018-05-10T08:30:13.819Z,17.50
2018-05-10T08:32:42.238Z,20.30
2018-05-10T08:35:10.558Z,20.20
2018-05-10T08:37:39.715Z,14.57
2018-05-10T08:40:07.271Z,18.77
2018-05-10T08:42:34.803Z,26.13
2018-05-10T08:45:02.456Z,21.47
2018-05-10T08:47:30.054Z,18.30
2018-05-10T08:49:57.660Z,19.97
2018-05-10T08:52:25.271Z,20.30
2018-05-10T08:54:52.823Z,19.40
2018-05-10T08:57:20.346Z,24.83
2018-05-10T08:59:48.655Z,22.40
2018-05-10T09:02:16.269Z,13.70
2018-05-10T09:04:43.847Z,23.53
2018-05-10T09:07:11.371Z,24.37
2018-05-10T09:09:38.935Z,22.77
2018-05-10T09:12:06.458Z,20.63
2018-05-10T09:14:34.006Z,18.13
2018-05-10T09:17:01.625Z,25.00
2018-05-10T09:19:30.055Z,21.43
2018-05-10T09:21:57.617Z,26.40
2018-05-10T09:24:25.360Z,16.93
2018-05-10T09:29:28.226Z,17.30
2018-05-10T09:31:56.527Z,20.67
2018-05-10T09:34:24.521Z,20.03
2018-05-10T09:36:52.098Z,34.97
2018-05-10T09:39:19.745Z,37.07
2018-05-10T09:41:50.149Z,22.80
2018-05-10T09:44:18.612Z,21.97
2018-05-10T09:46:46.146Z,18.70
2018-05-10T09:49:14.375Z,16.50
2018-05-10T09:51:41.943Z,16.77
2018-05-10T09:54:09.491Z,23.80
2018-05-10T09:56:37.060Z,21.10
2018-05-10T09:59:05.360Z,20.87
2018-05-10T10:01:33.247Z,23.17
2018-05-10T10:04:00.764Z,20.23
2018-05-10T10:06:28.316Z,14.55
2018-05-10T10:08:55.856Z,17.90
2018-05-10T10:11:23.398Z,18.30
2018-05-10T10:13:51.023Z,19.98
2018-05-10T10:16:18.683Z,20.10
2018-05-10T10:18:46.493Z,23.13
2018-05-10T10:21:14.058Z,24.30
2018-05-10T10:23:42.386Z,20.97
2018-05-10T10:26:09.942Z,23.03
2018-05-10T10:28:37.465Z,21.10
2018-05-10T10:31:05.014Z,27.93
2018-05-10T10:33:32.565Z,13.43
2018-05-10T10:36:00.111Z,18.80
2018-05-10T10:38:27.641Z,14.57
2018-05-10T10:40:55.184Z,17.47
2018-05-10T10:43:22.731Z,26.07
2018-05-10T10:45:50.274Z,21.13
2018-05-10T10:48:17.791Z,23.33
2018-05-10T10:50:45.349Z,24.67
2018-05-10T10:53:12.871Z,16.23
2018-05-10T10:55:40.411Z,20.27
2018-05-10T10:58:07.939Z,21.37
2018-05-10T11:00:37.186Z,87.77
2018-05-10T11:03:04.735Z,22.70
2018-05-10T11:05:32.315Z,16.67
2018-05-10T11:08:00.703Z,22.83
2018-05-10T11:10:28.228Z,17.10
2018-05-10T11:12:56.539Z,18.73
2018-05-10T11:15:25.113Z,19.20
2018-05-10T11:17:52.752Z,13.90
2018-05-10T11:20:20.481Z,30.50
2018-05-10T11:22:48.035Z,23.83
2018-05-10T11:25:15.562Z,26.30
2018-05-10T11:27:43.107Z,25.30
2018-05-10T11:30:10.758Z,21.07
2018-05-10T11:32:38.331Z,18.53
2018-05-10T11:35:05.875Z,26.00
2018-05-10T11:37:33.628Z,24.30
2018-05-10T11:40:01.234Z,19.43
2018-05-10T11:42:28.849Z,29.30
2018-05-10T11:44:56.454Z,19.07
2018-05-10T11:47:24.080Z,28.93
2018-05-10T11:49:52.014Z,23.13
2018-05-10T11:52:19.567Z,22.13
2018-05-10T11:54:47.100Z,40.60
2018-05-10T11:57:14.698Z,31.00
2018-05-10T11:59:42.219Z,25.33
2018-05-10T12:02:09.871Z,75.97
2018-05-10T12:04:38.428Z,24.67
2018-05-10T12:07:05.996Z,19.73
2018-05-10T12:09:33.629Z,19.43
2018-05-10T12:12:01.192Z,20.67
2018-05-10T12:14:28.707Z,23.43
2018-05-10T12:16:56.251Z,16.93
2018-05-10T12:19:23.768Z,17.13
2018-05-10T12:21:52.100Z,16.10
2018-05-10T12:24:19.731Z,24.90
2018-05-10T12:26:47.467Z,23.57
2018-05-10T12:29:15.005Z,16.53
2018-05-10T12:31:42.607Z,22.93
2018-05-10T12:34:10.484Z,27.97
2018-05-10T12:36:39.191Z,23.87
2018-05-10T12:39:08.086Z,17.80
2018-05-10T12:41:36.970Z,21.70
2018-05-10T12:44:05.324Z,22.93
2018-05-10T12:46:32.863Z,32.30
2018-05-10T12:49:01.751Z,26.60
2018-05-10T12:51:29.307Z,27.90
2018-05-10T12:53:57.611Z,18.40
2018-05-10T12:56:25.197Z,21.10
2018-05-10T12:58:52.723Z,23.50
2018-05-10T13:01:20.282Z,26.03
2018-05-10T13:03:47.923Z,26.20
2018-05-10T13:06:15.462Z,38.33
2018-05-10T13:08:43.080Z,36.53
2018-05-10T13:11:10.661Z,23.50
2018-05-10T13:13:38.227Z,88.73
2018-05-10T13:16:06.600Z,44.63
2018-05-10T13:18:34.940Z,31.63
2018-05-10T13:21:02.506Z,18.80
2018-05-10T13:23:30.836Z,21.80
2018-05-10T13:25:58.374Z,19.30
2018-05-10T13:28:26.196Z,24.63
2018-05-10T13:30:54.656Z,27.33
2018-05-10T13:33:22.235Z,24.13
2018-05-10T13:35:49.841Z,22.15
2018-05-10T13:38:17.479Z,25.53
2018-05-10T13:40:44.988Z,21.83
2018-05-10T13:43:12.555Z,28.13
2018-05-10T13:45:41.263Z,17.30
2018-05-10T13:48:08.813Z,27.17
2018-05-10T13:50:36.372Z,25.47
2018-05-10T13:53:04.062Z,20.60
2018-05-10T13:55:31.652Z,24.63
2018-05-10T13:57:59.784Z,21.63
2018-05-10T14:00:27.384Z,16.07
2018-05-10T14:02:54.883Z,12.03
2018-05-10T14:05:22.431Z,14.03
2018-05-10T14:07:50.728Z,24.10
2018-05-10T14:10:18.298Z,16.53
2018-05-10T14:12:45.834Z,25.00
2018-05-10T14:15:13.386Z,19.70
2018-05-10T14:17:42.010Z,23.33
2018-05-10T14:20:09.666Z,17.63
2018-05-10T14:22:38.480Z,21.83
2018-05-10T14:25:06.336Z,25.83
2018-05-10T14:27:33.908Z,20.93
2018-05-10T14:30:01.551Z,19.57
2018-05-10T14:32:29.107Z,15.00
2018-05-10T14:34:56.719Z,19.87
2018-05-10T14:37:25.123Z,19.10
2018-05-10T14:39:52.723Z,19.17
2018-05-10T14:42:20.256Z,12.97
2018-05-10T14:44:47.847Z,12.63
2018-05-10T14:47:15.743Z,15.10
2018-05-10T14:49:44.301Z,19.70
2018-05-10T14:52:12.835Z,14.03
2018-05-10T14:54:40.648Z,21.57
2018-05-10T14:57:08.245Z,18.80
2018-05-10T14:59:35.871Z,14.77
2018-05-10T15:02:03.464Z,14.57
2018-05-10T15:04:31.942Z,14.53
2018-05-10T15:06:59.770Z,17.80
2018-05-10T15:09:27.403Z,14.17
2018-05-10T15:11:54.930Z,16.07
2018-05-10T15:14:22.509Z,14.17
2018-05-10T15:16:50.068Z,14.90
2018-05-10T15:19:17.725Z,18.97
2018-05-10T15:21:46.377Z,26.40
2018-05-10T15:24:14.734Z,23.83
2018-05-10T15:26:43.263Z,14.57
2018-05-10T15:29:10.828Z,18.53
2018-05-10T15:31:38.392Z,19.23
2018-05-10T15:34:06.044Z,19.03
2018-05-10T15:36:33.720Z,26.87
2018-05-10T15:39:02.077Z,21.47
2018-05-10T15:41:30.407Z,21.90
2018-05-10T15:43:57.926Z,19.00
2018-05-10T15:46:25.466Z,23.33
2018-05-10T15:48:52.979Z,22.03
2018-05-10T15:51:20.528Z,30.77
2018-05-10T15:53:48.938Z,20.10
2018-05-10T15:56:16.618Z,23.13
2018-05-10T15:58:44.210Z,21.23
2018-05-10T16:01:11.806Z,17.77
2018-05-10T16:03:39.324Z,10.60
2018-05-10T16:06:07.047Z,12.97
2018-05-10T16:08:34.644Z,18.70
2018-05-10T16:11:02.218Z,15.47
2018-05-10T16:13:29.834Z,9.87
2018-05-10T16:15:57.394Z,16.30
2018-05-10T16:18:25.783Z,9.50
2018-05-10T16:20:53.335Z,17.93
2018-05-10T16:23:20.955Z,22.90
2018-05-10T16:25:49.309Z,20.03
2018-05-10T16:28:16.861Z,25.53
2018-05-10T16:30:45.436Z,25.40
2018-05-10T16:33:13.039Z,17.73
2018-05-10T16:35:40.577Z,22.10
2018-05-10T16:38:08.149Z,19.37
2018-05-10T16:40:35.694Z,23.50
2018-05-10T16:43:03.206Z,19.23
2018-05-10T16:45:30.809Z,19.73
2018-05-10T16:47:59.100Z,27.60
2018-05-10T16:50:26.663Z,26.30
2018-05-10T16:52:54.192Z,23.30
2018-05-10T16:55:21.746Z,23.53
2018-05-10T16:57:49.315Z,25.53
2018-05-10T17:00:16.903Z,21.80
2018-05-10T17:02:46.062Z,28.70
2018-05-10T17:05:14.389Z,23.20
2018-05-10T17:07:41.959Z,17.50
2018-05-10T17:10:09.549Z,28.47
2018-05-10T17:12:37.135Z,14.20
2018-05-10T17:15:04.687Z,25.57
2018-05-10T17:17:32.244Z,21.30
2018-05-10T17:19:59.758Z,18.63
2018-05-10T17:22:27.344Z,21.67
2018-05-10T17:24:54.909Z,29.17
2018-05-10T17:27:22.453Z,19.30
2018-05-10T17:29:50.005Z,23.83
2018-05-10T17:32:17.558Z,18.50
2018-05-10T17:34:46.635Z,21.73
2018-05-10T17:37:14.195Z,24.93
2018-05-10T17:39:41.715Z,36.17
2018-05-10T17:42:09.310Z,39.77
2018-05-10T17:44:36.829Z,36.97
2018-05-10T17:47:04.374Z,20.97
2018-05-10T17:49:31.933Z,24.80
2018-05-10T17:51:59.473Z,15.30
2018-05-10T17:54:26.995Z,27.13
2018-05-10T17:56:54.577Z,22.50
2018-05-10T17:59:22.177Z,26.20
2018-05-10T18:01:49.741Z,19.77
2018-05-10T18:04:17.299Z,24.40
2018-05-10T18:06:44.847Z,16.70
2018-05-10T18:09:12.379Z,17.37
2018-05-10T18:11:39.925Z,25.63
2018-05-10T18:14:07.453Z,20.10
2018-05-10T18:16:35.016Z,20.90
2018-05-10T18:19:02.547Z,28.73
2018-05-10T18:21:30.142Z,21.03
2018-05-10T18:23:57.664Z,24.53
2018-05-10T18:26:25.243Z,34.37
2018-05-10T18:28:53.530Z,31.20
2018-05-10T18:31:21.092Z,22.13
2018-05-10T18:33:48.643Z,18.73
2018-05-10T18:36:16.193Z,27.47
2018-05-10T18:38:43.980Z,29.77
2018-05-10T18:41:11.606Z,44.27
2018-05-10T18:43:39.164Z,42.70
2018-05-10T18:46:06.693Z,41.53
2018-05-10T18:48:34.535Z,43.40
2018-05-10T18:51:02.065Z,46.77
2018-05-10T18:53:29.635Z,78.10
2018-05-10T18:55:57.268Z,63.43
2018-05-10T18:58:25.023Z,64.53
2018-05-10T19:00:52.553Z,85.50
2018-05-10T19:03:20.329Z,91.20
2018-05-10T19:05:47.926Z,96.43
2018-05-10T19:08:15.474Z,72.67
2018-05-10T19:10:42.995Z,72.60
2018-05-10T19:13:11.327Z,72.77
2018-05-10T19:15:38.839Z,80.53
2018-05-10T19:18:06.390Z,63.17
2018-05-10T19:20:33.916Z,88.60
2018-05-10T19:23:01.482Z,77.07
2018-05-10T19:25:29.032Z,73.97
2018-05-10T19:27:56.580Z,65.35
2018-05-10T19:30:24.165Z,51.30
2018-05-10T19:32:51.692Z,86.30
2018-05-10T19:35:19.217Z,74.07
2018-05-10T19:37:46.791Z,70.50
2018-05-10T19:40:15.085Z,68.07
2018-05-10T19:42:42.705Z,64.67
2018-05-10T19:45:11.005Z,61.20
2018-05-10T19:47:38.559Z,55.93
2018-05-10T19:50:06.110Z,70.97
2018-05-10T19:52:34.351Z,47.27
2018-05-10T19:55:01.927Z,49.00
2018-05-10T19:57:29.469Z,45.20
2018-05-10T19:59:57.042Z,57.13
2018-05-10T20:02:24.567Z,50.70
2018-05-10T20:04:52.113Z,50.93
2018-05-10T20:07:19.664Z,41.63
2018-05-10T20:09:47.212Z,43.33
2018-05-10T20:12:14.726Z,50.17
2018-05-10T20:14:42.276Z,39.93
2018-05-10T20:17:09.928Z,43.97
2018-05-10T20:19:37.505Z,38.55
2018-05-10T20:22:05.823Z,35.80
2018-05-10T20:24:33.396Z,42.47
2018-05-10T20:27:00.973Z,35.47
2018-05-10T20:29:29.290Z,43.40
2018-05-10T20:31:56.813Z,36.67
2018-05-10T20:34:24.405Z,43.47
2018-05-10T20:36:52.691Z,39.57
2018-05-10T20:39:20.293Z,33.37
2018-05-10T20:41:47.824Z,35.60
2018-05-10T20:44:15.466Z,30.57
2018-05-10T20:46:43.028Z,35.87
2018-05-10T20:49:10.574Z,38.53
2018-05-10T20:51:38.095Z,33.53
2018-05-10T20:54:05.658Z,36.30
2018-05-10T20:56:33.299Z,37.67
2018-05-10T20:59:01.042Z,33.70
2018-05-10T21:01:28.695Z,43.60
2018-05-10T21:03:56.257Z,36.63
2018-05-10T21:06:23.791Z,32.03
2018-05-10T21:08:51.346Z,31.70
2018-05-10T21:11:18.962Z,40.27
2018-05-10T21:13:46.526Z,32.90
2018-05-10T21:16:14.175Z,41.30
2018-05-10T21:18:41.740Z,39.83
2018-05-10T21:21:10.238Z,44.60
2018-05-10T21:23:37.876Z,38.60
2018-05-10T21:26:05.447Z,39.17
2018-05-10T21:28:32.973Z,40.10
2018-05-10T21:31:00.843Z,42.83
2018-05-10T21:33:28.368Z,56.53
2018-05-10T21:35:55.919Z,40.30
2018-05-10T21:38:23.478Z,38.10
2018-05-10T21:40:51.507Z,41.53
2018-05-10T21:43:19.041Z,36.97
2018-05-10T21:45:48.092Z,40.93
2018-05-10T21:48:17.120Z,41.07
2018-05-10T21:50:44.670Z,39.10
2018-05-10T21:53:12.307Z,47.20
2018-05-10T21:55:39.882Z,45.30
2018-05-10T21:58:07.532Z,52.10
2018-05-10T22:00:35.810Z,52.53
2018-05-10T22:03:03.357Z,48.78
2018-05-10T22:05:30.915Z,47.73
2018-05-10T22:07:58.457Z,60.73
2018-05-10T22:10:26.011Z,60.10
2018-05-10T22:12:54.303Z,55.60
2018-05-10T22:15:22.020Z,64.00
2018-05-10T22:17:49.588Z,58.40
2018-05-10T22:20:17.139Z,71.50
2018-05-10T22:22:44.741Z,55.73
2018-05-10T22:25:12.235Z,55.60
2018-05-10T22:27:39.763Z,55.77
2018-05-10T22:30:07.375Z,58.73
2018-05-10T22:32:34.844Z,63.00
2018-05-10T22:35:03.169Z,57.60
2018-05-10T22:37:30.715Z,55.83
2018-05-10T22:39:58.258Z,55.63
2018-05-10T22:42:25.802Z,59.00
2018-05-10T22:44:53.360Z,66.43
2018-05-10T22:47:21.664Z,58.97
2018-05-10T22:49:49.330Z,67.90
2018-05-10T22:52:17.000Z,62.87
2018-05-10T22:54:45.326Z,77.17
2018-05-10T22:57:12.902Z,74.27
2018-05-10T22:59:40.483Z,73.27
2018-05-10T23:02:08.847Z,76.43
2018-05-10T23:04:36.604Z,75.83
2018-05-10T23:07:05.264Z,77.23
2018-05-10T23:09:33.684Z,85.47
2018-05-10T23:12:01.280Z,88.07
2018-05-10T23:14:29.884Z,78.90
2018-05-10T23:16:57.438Z,74.60
2018-05-10T23:19:24.976Z,71.97
2018-05-10T23:21:53.587Z,67.33
2018-05-10T23:24:21.111Z,77.23
2018-05-10T23:26:48.652Z,71.97
2018-05-10T23:29:16.246Z,75.23
2018-05-10T23:31:44.558Z,70.27
2018-05-10T23:34:12.082Z,72.30
2018-05-10T23:36:40.540Z,80.43
2018-05-10T23:39:08.839Z,65.53
2018-05-10T23:41:36.402Z,71.37
2018-05-10T23:44:03.924Z,67.47
2018-05-10T23:46:31.470Z,83.50
2018-05-10T23:48:59.022Z,77.60
2018-05-10T23:51:26.916Z,80.40
2018-05-10T23:53:54.851Z,80.90
2018-05-10T23:56:22.400Z,87.93
2018-05-10T23:58:50.691Z,76.60
